createdAt,value
2022-10-22T00:00:59.703Z,4.82
2022-10-22T00:03:32.263Z,6.93
2022-10-22T00:06:05.120Z,4.53
2022-10-22T00:08:37.967Z,5.50
2022-10-22T00:11:15.231Z,10.02
2022-10-22T00:13:48.289Z,7.65
2022-10-22T00:16:20.813Z,10.13
2022-10-22T00:18:53.348Z,4.72
2022-10-22T00:21:28.929Z,4.15
2022-10-22T00:24:02.276Z,5.10
2022-10-22T00:26:35.006Z,6.72
2022-10-22T00:29:07.785Z,5.07
2022-10-22T00:31:40.260Z,6.03
2022-10-22T00:34:12.747Z,7.07
2022-10-22T00:36:45.636Z,3.97
2022-10-22T00:39:22.646Z,4.82
2022-10-22T00:41:57.736Z,5.43
2022-10-22T00:45:25.377Z,14.05
2022-10-22T00:48:05.175Z,6.97
2022-10-22T00:51:01.889Z,5.82
2022-10-22T00:53:45.582Z,9.48
2022-10-22T00:56:18.303Z,8.13
2022-10-22T00:59:00.585Z,5.60
2022-10-22T01:04:05.568Z,7.63
2022-10-22T01:06:38.547Z,6.13
2022-10-22T01:09:34.579Z,7.78
2022-10-22T01:12:33.622Z,7.43
2022-10-22T01:15:34.601Z,5.93
2022-10-22T01:18:21.375Z,11.20
2022-10-22T01:21:18.373Z,11.55
2022-10-22T01:24:28.581Z,6.35
2022-10-22T01:27:40.838Z,8.57
2022-10-22T01:30:15.906Z,9.23
2022-10-22T01:32:54.619Z,6.88
2022-10-22T01:38:20.209Z,7.28
2022-10-22T01:40:54.461Z,7.63
2022-10-22T01:43:27.398Z,8.43
2022-10-22T01:46:05.419Z,9.05
2022-10-22T01:49:11.871Z,6.32
2022-10-22T01:52:16.555Z,6.72
2022-10-22T01:55:14.852Z,11.55
2022-10-22T01:58:25.488Z,10.32
2022-10-22T02:01:26.812Z,9.50
2022-10-22T02:04:11.858Z,7.53
2022-10-22T02:06:47.777Z,8.10
2022-10-22T02:09:22.934Z,7.72
2022-10-22T02:11:59.611Z,6.38
2022-10-22T02:14:35.598Z,3.50
2022-10-22T02:17:16.528Z,7.57
2022-10-22T02:20:03.613Z,7.68
2022-10-22T02:22:37.514Z,8.82
2022-10-22T02:25:11.600Z,8.10
2022-10-22T02:27:58.668Z,4.30
2022-10-22T02:30:34.559Z,6.68
2022-10-22T02:33:16.739Z,4.65
2022-10-22T02:35:52.206Z,4.68
2022-10-22T02:38:27.208Z,6.55
2022-10-22T02:41:00.082Z,7.72
2022-10-22T02:43:44.307Z,11.35
2022-10-22T02:46:17.005Z,8.80
2022-10-22T02:48:49.548Z,5.82
2022-10-22T02:51:22.137Z,7.32
2022-10-22T02:53:54.667Z,7.78
2022-10-22T02:56:27.662Z,12.57
2022-10-22T02:59:00.329Z,6.00
2022-10-22T03:01:32.917Z,7.90
2022-10-22T03:04:05.473Z,9.85
2022-10-22T03:06:37.960Z,8.73
2022-10-22T03:09:11.097Z,10.60
2022-10-22T03:11:43.619Z,15.73
2022-10-22T03:14:16.158Z,7.25
2022-10-22T03:16:48.756Z,15.07
2022-10-22T03:19:21.210Z,6.57
2022-10-22T03:22:00.391Z,7.57
2022-10-22T03:24:42.543Z,5.38
2022-10-22T03:27:20.207Z,7.10
2022-10-22T03:29:52.860Z,6.30
2022-10-22T03:32:25.401Z,8.85
2022-10-22T03:34:58.093Z,4.38
2022-10-22T03:37:30.644Z,6.55
2022-10-22T03:40:07.528Z,12.75
2022-10-22T03:42:42.470Z,3.75
2022-10-22T03:45:15.048Z,8.48
2022-10-22T03:47:47.883Z,8.23
2022-10-22T03:50:20.365Z,7.80
2022-10-22T03:52:53.612Z,6.40
2022-10-22T03:55:26.270Z,7.22
2022-10-22T03:57:58.814Z,5.78
2022-10-22T04:00:31.318Z,9.20
2022-10-22T04:03:04.380Z,8.55
2022-10-22T04:05:36.912Z,5.88
2022-10-22T04:08:09.706Z,7.53
2022-10-22T04:10:42.314Z,9.85
2022-10-22T04:13:14.851Z,8.27
2022-10-22T04:15:47.437Z,15.57
2022-10-22T04:18:22.673Z,9.25
2022-10-22T04:20:55.175Z,10.43
2022-10-22T04:23:27.872Z,7.05
2022-10-22T04:26:05.016Z,9.73
2022-10-22T04:28:37.510Z,10.00
2022-10-22T04:31:13.413Z,6.50
2022-10-22T04:33:46.089Z,7.72
2022-10-22T04:36:19.618Z,6.65
2022-10-22T04:38:56.363Z,9.48
2022-10-22T04:41:35.830Z,5.80
2022-10-22T04:44:12.240Z,8.52
2022-10-22T04:46:48.932Z,6.97
2022-10-22T04:49:21.450Z,6.18
2022-10-22T04:51:53.983Z,7.15
2022-10-22T04:54:29.077Z,15.95
2022-10-22T04:57:04.690Z,6.25
2022-10-22T04:59:37.332Z,8.52
2022-10-22T05:02:09.875Z,8.02
2022-10-22T05:04:44.459Z,5.85
2022-10-22T05:07:17.004Z,5.88
2022-10-22T05:09:50.243Z,9.48
2022-10-22T05:12:22.778Z,8.82
2022-10-22T05:14:56.442Z,6.05
2022-10-22T05:17:28.947Z,11.85
2022-10-22T05:20:01.499Z,6.93
2022-10-22T05:22:35.126Z,7.20
2022-10-22T05:25:08.258Z,6.90
2022-10-22T05:27:41.066Z,8.82
2022-10-22T05:30:13.910Z,8.02
2022-10-22T05:32:46.456Z,9.30
2022-10-22T05:35:19.005Z,7.28
2022-10-22T05:37:51.590Z,8.68
2022-10-22T05:40:30.413Z,7.82
2022-10-22T05:43:03.777Z,9.45
2022-10-22T05:45:41.482Z,7.80
2022-10-22T05:48:13.981Z,13.57
2022-10-22T05:50:50.550Z,10.75
2022-10-22T05:53:24.087Z,12.57
2022-10-22T05:55:59.261Z,12.75
2022-10-22T05:58:33.137Z,13.85
2022-10-22T06:01:11.237Z,5.60
2022-10-22T06:03:44.870Z,11.82
2022-10-22T06:06:35.122Z,10.00
2022-10-22T06:09:23.857Z,9.10
2022-10-22T06:14:32.584Z,5.30
2022-10-22T06:17:05.084Z,6.47
2022-10-22T06:19:37.664Z,15.30
2022-10-22T06:22:10.194Z,9.50
2022-10-22T06:24:45.037Z,8.43
2022-10-22T06:27:17.799Z,6.22
2022-10-22T06:29:50.434Z,10.65
2022-10-22T06:32:23.073Z,10.70
2022-10-22T06:34:55.576Z,7.20
2022-10-22T06:37:28.033Z,6.95
2022-10-22T06:40:00.650Z,6.82
2022-10-22T06:42:33.114Z,5.45
2022-10-22T06:45:06.780Z,6.28
2022-10-22T06:47:39.689Z,8.50
2022-10-22T06:50:12.360Z,8.82
2022-10-22T06:52:45.334Z,7.88
2022-10-22T06:55:17.807Z,8.00
2022-10-22T06:57:50.302Z,4.97
2022-10-22T07:00:22.948Z,8.00
2022-10-22T07:02:57.792Z,7.00
2022-10-22T07:05:34.521Z,7.95
2022-10-22T07:08:07.856Z,2.53
2022-10-22T07:10:40.388Z,8.40
2022-10-22T07:13:12.942Z,9.02
2022-10-22T07:15:45.465Z,7.15
2022-10-22T07:18:18.109Z,7.07
2022-10-22T07:20:50.938Z,9.25
2022-10-22T07:23:23.757Z,7.15
2022-10-22T07:28:37.874Z,8.73
2022-10-22T07:31:13.230Z,8.00
2022-10-22T07:33:46.038Z,3.47
2022-10-22T07:36:18.714Z,6.60
2022-10-22T07:38:57.723Z,4.47
2022-10-22T07:41:31.111Z,10.82
2022-10-22T07:44:03.831Z,5.88
2022-10-22T07:46:36.338Z,4.75
2022-10-22T07:49:08.830Z,4.25
2022-10-22T07:51:41.293Z,4.65
2022-10-22T07:54:13.831Z,7.68
2022-10-22T07:56:46.372Z,5.03
2022-10-22T07:59:19.084Z,10.70
2022-10-22T08:01:51.654Z,3.85
2022-10-22T08:04:24.302Z,12.07
2022-10-22T08:06:56.782Z,8.68
2022-10-22T08:09:29.276Z,6.50
2022-10-22T08:12:01.991Z,6.72
2022-10-22T08:14:34.508Z,10.90
2022-10-22T08:17:07.153Z,8.07
2022-10-22T08:19:42.350Z,6.45
2022-10-22T08:22:14.956Z,6.18
2022-10-22T08:24:47.484Z,12.32
2022-10-22T08:27:20.560Z,8.95
2022-10-22T08:29:56.113Z,10.73
2022-10-22T08:32:28.693Z,8.80
2022-10-22T08:35:04.213Z,9.85
2022-10-22T08:37:36.950Z,6.78
2022-10-22T08:40:23.164Z,7.68
2022-10-22T08:43:06.878Z,4.40
2022-10-22T08:46:16.177Z,2.70
2022-10-22T08:51:41.523Z,6.47
2022-10-22T08:54:52.764Z,8.80
2022-10-22T08:58:03.908Z,2.70
2022-10-22T09:00:46.468Z,5.55
2022-10-22T09:04:19.461Z,9.10
2022-10-22T09:07:02.271Z,4.07
2022-10-22T09:09:47.665Z,6.05
2022-10-22T09:12:26.085Z,3.42
2022-10-22T09:14:58.562Z,5.47
2022-10-22T09:18:03.431Z,5.65
2022-10-22T09:21:02.782Z,10.18
2022-10-22T09:24:02.019Z,8.77
2022-10-22T09:26:39.745Z,5.90
2022-10-22T09:29:25.205Z,8.07
2022-10-22T09:31:57.763Z,6.22
2022-10-22T09:34:30.713Z,5.03
2022-10-22T09:37:08.978Z,6.38
2022-10-22T09:39:50.782Z,6.22
2022-10-22T09:42:23.721Z,7.70
2022-10-22T09:44:59.613Z,5.35
2022-10-22T09:50:47.476Z,4.80
2022-10-22T09:53:30.465Z,8.30
2022-10-22T09:56:17.364Z,4.18
2022-10-22T09:58:51.819Z,3.75
2022-10-22T10:01:35.457Z,7.53
2022-10-22T10:04:13.335Z,8.32
2022-10-22T10:06:45.944Z,5.80
2022-10-22T10:09:22.518Z,9.20
2022-10-22T10:12:10.221Z,6.07
2022-10-22T10:15:16.996Z,7.22
2022-10-22T10:18:01.471Z,8.20
2022-10-22T10:21:24.794Z,5.20
2022-10-22T10:24:54.417Z,5.32
2022-10-22T10:27:44.678Z,4.55
2022-10-22T10:30:21.383Z,5.05
2022-10-22T10:33:36.469Z,9.90
2022-10-22T10:36:19.497Z,3.28
2022-10-22T10:39:07.595Z,7.30
2022-10-22T10:41:50.709Z,7.18
2022-10-22T10:44:44.103Z,9.05
2022-10-22T10:48:08.130Z,4.28
2022-10-22T10:51:08.633Z,9.02
2022-10-22T10:54:18.851Z,5.03
2022-10-22T10:57:39.558Z,5.38
2022-10-22T11:00:19.954Z,9.35
2022-10-22T11:03:34.849Z,9.23
2022-10-22T11:06:21.591Z,5.72
2022-10-22T11:09:27.912Z,7.75
2022-10-22T11:12:10.509Z,6.60
2022-10-22T11:15:15.317Z,8.90
2022-10-22T11:17:49.002Z,4.05
2022-10-22T11:20:42.823Z,7.13
2022-10-22T11:23:25.780Z,5.03
2022-10-22T11:26:01.938Z,3.85
2022-10-22T11:28:45.564Z,4.30
2022-10-22T11:31:20.237Z,7.65
2022-10-22T11:34:10.034Z,5.63
2022-10-22T11:36:50.546Z,6.68
2022-10-22T11:39:51.141Z,6.00
2022-10-22T11:42:46.622Z,7.72
2022-10-22T11:45:20.269Z,8.25
2022-10-22T11:47:59.228Z,9.55
2022-10-22T11:50:57.369Z,8.25
2022-10-22T11:53:37.520Z,7.53
2022-10-22T11:56:10.690Z,5.88
2022-10-22T11:58:52.159Z,9.90
2022-10-22T12:01:42.223Z,4.82
2022-10-22T12:04:23.585Z,5.85
2022-10-22T12:07:00.519Z,9.25
2022-10-22T12:09:41.090Z,4.55
2022-10-22T12:12:18.819Z,6.22
2022-10-22T12:14:56.825Z,7.70
2022-10-22T12:17:31.449Z,9.40
2022-10-22T12:20:14.512Z,5.40
2022-10-22T12:22:47.649Z,8.55
2022-10-22T12:25:25.202Z,9.70
2022-10-22T12:27:59.861Z,13.38
2022-10-22T12:30:37.203Z,4.57
2022-10-22T12:33:22.517Z,7.60
2022-10-22T12:35:57.501Z,6.07
2022-10-22T12:38:30.026Z,7.28
2022-10-22T12:41:02.589Z,5.18
2022-10-22T12:43:35.161Z,5.20
2022-10-22T12:46:16.747Z,6.40
2022-10-22T12:48:49.374Z,4.60
2022-10-22T12:51:22.305Z,5.38
2022-10-22T12:54:08.234Z,4.38
2022-10-22T12:56:40.822Z,3.95
2022-10-22T12:59:38.768Z,4.47
2022-10-22T13:02:27.947Z,3.60
2022-10-22T13:05:16.139Z,4.55
2022-10-22T13:08:11.911Z,7.00
2022-10-22T13:10:53.172Z,4.30
2022-10-22T13:13:42.694Z,6.05
2022-10-22T13:16:27.597Z,6.32
2022-10-22T13:19:00.287Z,5.18
2022-10-22T13:21:39.439Z,8.55
2022-10-22T13:24:24.504Z,5.20
2022-10-22T13:26:57.754Z,6.70
2022-10-22T13:29:30.269Z,8.27
2022-10-22T13:32:02.821Z,11.18
2022-10-22T13:34:36.322Z,2.88
2022-10-22T13:37:09.380Z,4.60
2022-10-22T13:39:41.869Z,4.55
2022-10-22T13:42:14.358Z,5.00
2022-10-22T13:44:46.918Z,4.25
2022-10-22T13:47:29.783Z,4.03
2022-10-22T13:50:10.219Z,11.05
2022-10-22T13:52:52.528Z,10.40
2022-10-22T13:55:30.078Z,7.07
2022-10-22T13:58:14.280Z,2.63
2022-10-22T14:00:52.622Z,6.03
2022-10-22T14:03:34.428Z,5.53
2022-10-22T14:06:14.332Z,6.43
2022-10-22T14:08:54.302Z,7.72
2022-10-22T14:11:27.365Z,9.50
2022-10-22T14:13:59.886Z,6.20
2022-10-22T14:16:33.193Z,7.85
2022-10-22T14:19:15.202Z,5.63
2022-10-22T14:21:49.103Z,4.95
2022-10-22T14:24:21.565Z,10.88
2022-10-22T14:26:54.091Z,5.07
2022-10-22T14:29:26.649Z,7.18
2022-10-22T14:31:59.154Z,5.57
2022-10-22T14:34:31.665Z,8.73
2022-10-22T14:37:04.114Z,6.90
2022-10-22T14:39:36.614Z,3.08
2022-10-22T14:42:11.417Z,4.53
2022-10-22T14:44:43.896Z,7.82
2022-10-22T14:47:16.325Z,6.07
2022-10-22T14:49:48.781Z,7.57
2022-10-22T14:52:21.341Z,4.15
2022-10-22T14:54:53.795Z,3.17
2022-10-22T14:57:26.301Z,4.35
2022-10-22T14:59:58.834Z,4.43
2022-10-22T15:02:31.281Z,4.30
2022-10-22T15:05:04.721Z,3.22
2022-10-22T15:07:38.064Z,7.85
2022-10-22T15:10:10.624Z,2.85
2022-10-22T15:12:43.170Z,8.13
2022-10-22T15:15:17.289Z,6.20
2022-10-22T15:17:50.714Z,3.95
2022-10-22T15:20:23.171Z,3.20
2022-10-22T15:22:56.547Z,4.70
2022-10-22T15:25:29.029Z,12.13
2022-10-22T15:28:09.213Z,2.65
2022-10-22T15:30:42.558Z,4.15
2022-10-22T15:33:15.026Z,5.22
2022-10-22T15:35:47.505Z,5.03
2022-10-22T15:38:21.175Z,4.75
2022-10-22T15:41:05.787Z,3.53
2022-10-22T15:43:38.429Z,5.32
2022-10-22T15:46:18.573Z,5.10
2022-10-22T15:48:52.988Z,7.97
2022-10-22T15:51:26.063Z,4.25
2022-10-22T15:53:59.818Z,6.95
2022-10-22T15:56:33.025Z,7.00
2022-10-22T15:59:05.930Z,8.25
2022-10-22T16:01:39.291Z,5.55
2022-10-22T16:04:11.958Z,5.05
2022-10-22T16:06:48.597Z,5.15
2022-10-22T16:09:27.098Z,7.85
2022-10-22T16:11:59.593Z,7.00
2022-10-22T16:14:32.068Z,6.70
2022-10-22T16:17:04.550Z,7.00
2022-10-22T16:19:37.013Z,5.05
2022-10-22T16:22:11.482Z,4.88
2022-10-22T16:24:43.951Z,6.80
2022-10-22T16:27:16.453Z,7.53
2022-10-22T16:29:48.973Z,4.35
2022-10-22T16:32:21.508Z,8.68
2022-10-22T16:34:54.041Z,8.10
2022-10-22T16:37:26.477Z,4.72
2022-10-22T16:39:59.735Z,8.77
2022-10-22T16:42:33.411Z,7.43
2022-10-22T16:45:06.417Z,8.57
2022-10-22T16:47:39.580Z,5.60
2022-10-22T16:50:12.838Z,6.40
2022-10-22T16:52:45.277Z,7.88
2022-10-22T16:55:18.046Z,3.38
2022-10-22T16:57:52.273Z,9.43
2022-10-22T17:00:24.744Z,10.13
2022-10-22T17:02:57.737Z,10.80
2022-10-22T17:05:31.626Z,7.72
2022-10-22T17:08:04.252Z,2.92
2022-10-22T17:10:37.765Z,5.45
2022-10-22T17:13:10.230Z,6.53
2022-10-22T17:15:42.744Z,4.97
2022-10-22T17:18:15.572Z,4.18
2022-10-22T17:20:48.117Z,3.47
2022-10-22T17:23:20.564Z,5.28
2022-10-22T17:26:03.410Z,7.93
2022-10-22T17:28:36.469Z,4.70
2022-10-22T17:31:26.308Z,5.93
2022-10-22T17:33:59.903Z,6.30
2022-10-22T17:36:35.713Z,5.10
2022-10-22T17:39:15.350Z,4.57
2022-10-22T17:41:47.857Z,6.95
2022-10-22T17:44:20.334Z,7.75
2022-10-22T17:46:53.235Z,4.93
2022-10-22T17:49:25.753Z,8.10
2022-10-22T17:51:58.261Z,4.28
2022-10-22T17:54:30.862Z,7.63
2022-10-22T17:57:03.740Z,4.80
2022-10-22T17:59:36.377Z,3.80
2022-10-22T18:02:17.973Z,4.63
2022-10-22T18:04:52.367Z,6.32
2022-10-22T18:07:24.838Z,4.82
2022-10-22T18:09:57.307Z,3.95
2022-10-22T18:12:29.830Z,9.55
2022-10-22T18:15:02.286Z,6.82
2022-10-22T18:17:37.224Z,8.57
2022-10-22T18:20:12.702Z,5.93
2022-10-22T18:22:45.390Z,8.25
2022-10-22T18:25:17.840Z,7.30
2022-10-22T18:27:50.327Z,6.57
2022-10-22T18:30:22.791Z,8.02
2022-10-22T18:32:55.294Z,4.65
2022-10-22T18:35:31.303Z,6.18
2022-10-22T18:38:03.836Z,6.53
2022-10-22T18:40:44.698Z,8.38
2022-10-22T18:43:18.662Z,5.53
2022-10-22T18:45:51.315Z,6.30
2022-10-22T18:48:24.793Z,10.45
2022-10-22T18:51:04.941Z,6.10
2022-10-22T18:53:38.025Z,6.45
2022-10-22T18:56:12.231Z,6.95
2022-10-22T18:58:49.658Z,10.15
2022-10-22T19:01:25.569Z,8.93
2022-10-22T19:03:58.287Z,4.13
2022-10-22T19:06:34.372Z,4.65
2022-10-22T19:09:09.802Z,7.20
2022-10-22T19:11:46.314Z,9.32
2022-10-22T19:14:20.385Z,6.50
2022-10-22T19:16:53.045Z,5.93
2022-10-22T19:19:25.557Z,5.07
2022-10-22T19:21:59.475Z,6.45
2022-10-22T19:24:32.007Z,9.27
2022-10-22T19:27:04.566Z,8.57
2022-10-22T19:29:37.029Z,6.28
2022-10-22T19:32:09.913Z,5.38
2022-10-22T19:34:43.016Z,10.43
2022-10-22T19:37:15.514Z,6.57
2022-10-22T19:39:49.914Z,10.25
2022-10-22T19:42:22.430Z,7.18
2022-10-22T19:44:54.907Z,9.30
2022-10-22T19:47:28.013Z,7.95
2022-10-22T19:50:00.527Z,7.45
2022-10-22T19:52:33.706Z,6.22
2022-10-22T19:55:06.771Z,8.93
2022-10-22T19:57:39.608Z,6.72
2022-10-22T20:00:12.887Z,10.60
2022-10-22T20:02:45.389Z,8.27
2022-10-22T20:05:18.020Z,8.25
2022-10-22T20:07:50.675Z,12.88
2022-10-22T20:10:24.114Z,12.75
2022-10-22T20:12:56.852Z,10.15
2022-10-22T20:15:31.677Z,15.13
2022-10-22T20:18:04.350Z,12.98
2022-10-22T20:20:40.988Z,20.75
2022-10-22T20:23:13.599Z,17.63
2022-10-22T20:25:47.893Z,16.67
2022-10-22T20:28:20.549Z,18.30
2022-10-22T20:30:53.149Z,19.42
2022-10-22T20:33:25.754Z,25.70
2022-10-22T20:36:04.169Z,36.15
2022-10-22T20:41:18.453Z,29.25
2022-10-22T20:43:51.861Z,27.05
2022-10-22T20:46:31.542Z,20.50
2022-10-22T20:49:15.132Z,25.83
2022-10-22T20:51:47.780Z,21.05
2022-10-22T20:54:20.477Z,16.67
2022-10-22T20:56:53.419Z,14.50
2022-10-22T20:59:32.568Z,16.08
2022-10-22T21:02:06.171Z,21.70
2022-10-22T21:04:40.480Z,14.38
2022-10-22T21:07:15.377Z,11.65
2022-10-22T21:09:47.861Z,11.13
2022-10-22T21:12:20.375Z,15.43
2022-10-22T21:14:52.878Z,10.95
2022-10-22T21:17:25.423Z,8.55
2022-10-22T21:19:58.071Z,8.57
2022-10-22T21:22:30.886Z,11.05
2022-10-22T21:25:03.743Z,10.90
2022-10-22T21:27:36.260Z,6.38
2022-10-22T21:30:09.380Z,12.65
2022-10-22T21:32:42.143Z,8.43
2022-10-22T21:35:14.969Z,8.98
2022-10-22T21:37:47.582Z,9.75
2022-10-22T21:40:20.808Z,12.77
2022-10-22T21:42:53.369Z,9.13
2022-10-22T21:45:25.914Z,19.42
2022-10-22T21:47:58.440Z,14.98
2022-10-22T21:50:31.145Z,19.67
2022-10-22T21:53:03.666Z,19.02
2022-10-22T21:55:41.199Z,11.90
2022-10-22T21:58:13.846Z,16.27
2022-10-22T22:00:55.125Z,14.30
2022-10-22T22:03:27.840Z,16.63
2022-10-22T22:06:02.982Z,10.68
2022-10-22T22:08:36.484Z,11.80
2022-10-22T22:11:13.895Z,11.40
2022-10-22T22:13:48.679Z,13.38
2022-10-22T22:16:29.560Z,10.10
2022-10-22T22:19:07.162Z,11.20
2022-10-22T22:21:41.529Z,14.00
2022-10-22T22:24:14.400Z,11.68
2022-10-22T22:26:47.984Z,11.57
2022-10-22T22:29:20.529Z,6.97
2022-10-22T22:31:53.051Z,7.93
2022-10-22T22:34:25.564Z,8.18
2022-10-22T22:36:58.127Z,10.25
2022-10-22T22:39:30.721Z,10.15
2022-10-22T22:42:03.382Z,7.70
2022-10-22T22:44:35.854Z,10.20
2022-10-22T22:47:08.340Z,6.93
2022-10-22T22:49:40.854Z,7.68
2022-10-22T22:52:13.423Z,6.50
2022-10-22T22:54:48.114Z,12.13
2022-10-22T22:57:20.597Z,10.80
2022-10-22T22:59:53.102Z,13.45
2022-10-22T23:02:25.567Z,11.45
2022-10-22T23:04:58.123Z,40.35
2022-10-22T23:07:30.721Z,11.00
2022-10-22T23:10:03.746Z,16.35
2022-10-22T23:12:36.261Z,8.18
2022-10-22T23:15:09.284Z,7.28
2022-10-22T23:17:41.763Z,17.30
2022-10-22T23:20:14.257Z,11.02
2022-10-22T23:22:46.837Z,10.52
2022-10-22T23:25:19.323Z,17.33
2022-10-22T23:27:51.800Z,16.58
2022-10-22T23:30:24.284Z,16.98
2022-10-22T23:32:56.769Z,10.18
2022-10-22T23:35:30.119Z,13.15
2022-10-22T23:38:02.675Z,16.48
2022-10-22T23:40:35.457Z,15.18
2022-10-22T23:43:07.981Z,14.30
2022-10-22T23:45:40.506Z,22.65
2022-10-22T23:48:13.072Z,18.27
2022-10-22T23:50:46.071Z,15.40
2022-10-22T23:53:18.628Z,21.52
2022-10-22T23:55:51.131Z,26.48
2022-10-22T23:58:23.662Z,14.95
